createdAt,value
2022-08-09T00:01:55.346Z,62.90
2022-08-09T00:04:34.750Z,62.68
2022-08-09T00:07:02.703Z,62.71
2022-08-09T00:09:29.730Z,62.86
2022-08-09T00:12:04.559Z,62.95
2022-08-09T00:14:38.300Z,63.03
2022-08-09T00:17:05.846Z,63.03
2022-08-09T00:19:34.119Z,63.56
2022-08-09T00:22:03.658Z,63.89
2022-08-09T00:24:32.248Z,64.15
2022-08-09T00:27:00.186Z,64.40
2022-08-09T00:29:39.875Z,64.29
2022-08-09T00:32:26.585Z,64.23
2022-08-09T00:35:03.512Z,64.49
2022-08-09T00:37:32.533Z,64.63
2022-08-09T00:40:13.568Z,64.63
2022-08-09T00:44:25.872Z,64.78
2022-08-09T00:45:34.818Z,64.85
2022-08-09T00:48:04.098Z,64.81
2022-08-09T00:50:32.422Z,64.77
2022-08-09T00:53:00.190Z,64.74
2022-08-09T00:56:03.809Z,64.75
2022-08-09T00:58:27.726Z,64.77
2022-08-09T01:00:59.224Z,64.69
2022-08-09T01:03:46.430Z,64.59
2022-08-09T01:06:53.849Z,64.77
2022-08-09T01:09:24.705Z,65.03
2022-08-09T01:12:11.841Z,64.45
2022-08-09T01:14:52.944Z,64.46
2022-08-09T01:17:30.500Z,64.29
2022-08-09T01:20:06.587Z,64.46
2022-08-09T01:22:34.766Z,64.46
2022-08-09T01:25:29.561Z,64.46
2022-08-09T01:28:01.456Z,64.16
2022-08-09T01:30:46.670Z,63.93
2022-08-09T01:33:21.908Z,63.69
2022-08-09T01:35:55.437Z,63.56
2022-08-09T01:38:26.523Z,63.47
2022-08-09T01:41:07.056Z,63.38
2022-08-09T01:43:50.339Z,63.39
2022-08-09T01:46:27.301Z,63.22
2022-08-09T01:49:00.128Z,63.15
2022-08-09T01:51:32.531Z,62.99
2022-08-09T01:54:02.349Z,62.93
2022-08-09T01:56:33.592Z,62.70
2022-08-09T01:59:04.183Z,62.63
2022-08-09T02:01:57.989Z,62.66
2022-08-09T02:04:22.269Z,62.58
2022-08-09T02:07:15.588Z,62.29
2022-08-09T02:10:03.850Z,61.73
2022-08-09T02:12:33.935Z,61.88
2022-08-09T02:15:03.204Z,61.77
2022-08-09T02:18:00.750Z,61.69
2022-08-09T02:20:26.531Z,61.72
2022-08-09T02:23:02.590Z,61.67
2022-08-09T02:25:42.269Z,61.67
2022-08-09T02:28:37.525Z,61.74
2022-08-09T02:31:28.142Z,61.75
2022-08-09T02:34:06.942Z,61.97
2022-08-09T02:36:44.489Z,62.16
2022-08-09T02:39:33.259Z,62.16
2022-08-09T02:42:05.714Z,62.46
2022-08-09T02:44:40.639Z,62.42
2022-08-09T02:47:12.142Z,62.62
2022-08-09T02:50:09.747Z,62.59
2022-08-09T02:52:55.468Z,62.47
2022-08-09T02:55:33.551Z,62.14
2022-08-09T02:58:35.362Z,61.79
2022-08-09T03:01:03.986Z,61.39
2022-08-09T03:04:12.291Z,60.98
2022-08-09T03:06:22.968Z,61.02
2022-08-09T03:08:54.202Z,60.60
2022-08-09T03:11:30.074Z,60.39
2022-08-09T03:14:12.221Z,60.40
2022-08-09T03:16:45.339Z,60.29
2022-08-09T03:19:58.093Z,60.10
2022-08-09T03:22:06.034Z,60.08
2022-08-09T03:24:52.187Z,60.02
2022-08-09T03:27:21.182Z,59.81
2022-08-09T03:30:00.866Z,59.80
2022-08-09T03:32:36.787Z,59.79
2022-08-09T03:35:14.956Z,59.79
2022-08-09T03:37:56.414Z,59.68
2022-08-09T03:40:25.845Z,59.77
2022-08-09T03:42:58.371Z,59.53
2022-08-09T03:46:04.514Z,59.20
2022-08-09T03:48:12.531Z,59.47
2022-08-09T03:50:49.362Z,59.60
2022-08-09T03:53:20.809Z,59.54
2022-08-09T03:55:51.563Z,59.62
2022-08-09T03:58:21.223Z,59.29
2022-08-09T04:00:49.737Z,58.71
2022-08-09T04:03:35.390Z,58.66
2022-08-09T04:06:07.106Z,58.59
2022-08-09T04:08:34.313Z,58.64
2022-08-09T04:11:01.838Z,58.76
2022-08-09T04:14:37.370Z,58.72
2022-08-09T04:16:21.153Z,58.73
2022-08-09T04:18:49.199Z,58.86
2022-08-09T04:21:18.531Z,59.15
2022-08-09T04:23:53.688Z,59.68
2022-08-09T04:26:23.431Z,59.86
2022-08-09T04:28:50.808Z,59.90
2022-08-09T04:31:19.094Z,60.37
2022-08-09T04:33:56.747Z,60.42
2022-08-09T04:36:29.299Z,60.72
2022-08-09T04:39:01.686Z,60.49
2022-08-09T04:41:33.315Z,60.62
2022-08-09T04:44:09.798Z,60.65
2022-08-09T04:46:58.988Z,60.41
2022-08-09T04:49:53.881Z,60.56
2022-08-09T04:52:26.638Z,60.79
2022-08-09T04:55:00.573Z,60.77
2022-08-09T04:57:53.889Z,60.86
2022-08-09T05:00:16.617Z,61.03
2022-08-09T05:02:44.380Z,60.78
2022-08-09T05:05:31.340Z,60.54
2022-08-09T05:08:05.615Z,60.45
2022-08-09T05:10:34.267Z,60.53
2022-08-09T05:13:04.002Z,60.53
2022-08-09T05:15:39.107Z,60.24
2022-08-09T05:18:57.679Z,60.20
2022-08-09T05:20:58.011Z,59.93
2022-08-09T05:23:55.528Z,59.80
2022-08-09T05:26:15.990Z,59.50
2022-08-09T05:28:53.343Z,58.59
2022-08-09T05:31:37.094Z,58.45
2022-08-09T05:34:07.139Z,58.14
2022-08-09T05:36:47.031Z,57.46
2022-08-09T05:39:28.862Z,57.13
2022-08-09T05:42:01.722Z,56.81
2022-08-09T05:44:32.741Z,56.47
2022-08-09T05:47:00.851Z,56.00
2022-08-09T05:50:23.425Z,55.17
2022-08-09T05:52:14.700Z,54.68
2022-08-09T05:54:42.694Z,53.85
2022-08-09T05:57:12.823Z,53.92
2022-08-09T05:59:41.850Z,52.67
2022-08-09T06:02:10.037Z,51.32
2022-08-09T06:04:37.123Z,50.75
2022-08-09T06:07:11.682Z,51.14
2022-08-09T06:10:01.811Z,51.72
2022-08-09T06:12:33.615Z,53.12
2022-08-09T06:15:01.891Z,53.76
2022-08-09T06:17:39.709Z,54.31
2022-08-09T06:20:08.047Z,54.93
2022-08-09T06:22:35.485Z,55.22
2022-08-09T06:25:03.203Z,55.12
2022-08-09T06:27:42.114Z,55.28
2022-08-09T06:30:10.560Z,55.46
2022-08-09T06:32:59.157Z,55.07
2022-08-09T06:35:56.498Z,55.24
2022-08-09T06:38:16.437Z,55.44
2022-08-09T06:40:43.617Z,55.66
2022-08-09T06:43:11.524Z,55.84
2022-08-09T06:46:06.771Z,56.33
2022-08-09T06:48:26.175Z,56.60
2022-08-09T06:51:00.007Z,57.00
2022-08-09T06:53:27.138Z,57.08
2022-08-09T06:56:00.533Z,56.86
2022-08-09T07:00:47.519Z,56.84
2022-08-09T07:01:14.590Z,57.10
2022-08-09T07:03:52.356Z,56.99
2022-08-09T07:06:21.591Z,57.23
2022-08-09T07:08:52.358Z,57.60
2022-08-09T07:11:25.244Z,58.07
2022-08-09T07:14:04.156Z,57.70
2022-08-09T07:16:41.286Z,57.50
2022-08-09T07:19:15.212Z,57.37
2022-08-09T07:21:57.502Z,57.55
2022-08-09T07:24:32.197Z,57.68
2022-08-09T07:27:24.044Z,57.78
2022-08-09T07:29:58.651Z,57.64
2022-08-09T07:32:31.797Z,57.19
2022-08-09T07:34:59.658Z,56.42
2022-08-09T07:37:26.513Z,55.82
2022-08-09T07:39:53.894Z,54.83
2022-08-09T07:42:29.068Z,53.73
2022-08-09T07:45:06.375Z,53.77
2022-08-09T07:47:49.563Z,54.31
2022-08-09T07:50:32.970Z,54.44
2022-08-09T07:53:05.271Z,54.02
2022-08-09T07:55:41.441Z,52.68
2022-08-09T07:58:21.600Z,49.68
2022-08-09T08:01:05.923Z,49.02
2022-08-09T08:03:36.991Z,45.54
2022-08-09T08:06:04.911Z,44.83
2022-08-09T08:09:01.060Z,44.53
2022-08-09T08:12:12.058Z,46.05
2022-08-09T08:14:06.753Z,46.41
2022-08-09T08:16:34.527Z,43.44
2022-08-09T08:19:03.301Z,42.83
2022-08-09T08:21:32.248Z,42.77
2022-08-09T08:24:01.229Z,41.94
2022-08-09T08:26:41.827Z,41.23
2022-08-09T08:29:27.441Z,39.44
2022-08-09T08:32:03.234Z,39.60
2022-08-09T08:34:33.540Z,39.73
2022-08-09T08:37:01.658Z,39.89
2022-08-09T08:39:28.842Z,38.76
2022-08-09T08:41:58.691Z,39.13
2022-08-09T08:44:29.655Z,39.89
2022-08-09T08:47:05.014Z,40.72
2022-08-09T08:49:48.325Z,42.17
2022-08-09T08:55:09.822Z,42.95
2022-08-09T08:57:38.170Z,43.50
2022-08-09T09:00:20.352Z,43.03
2022-08-09T09:02:52.952Z,42.65
2022-08-09T09:05:57.982Z,38.32
2022-08-09T09:08:30.538Z,36.57
2022-08-09T09:11:04.129Z,35.77
2022-08-09T09:13:54.803Z,33.96
2022-08-09T09:16:31.183Z,33.46
2022-08-09T09:19:37.345Z,31.76
2022-08-09T09:22:11.907Z,29.53
2022-08-09T09:24:49.940Z,28.43
2022-08-09T09:28:03.588Z,27.64
2022-08-09T09:30:28.848Z,25.55
2022-08-09T09:33:16.554Z,20.39
2022-08-09T09:36:00.910Z,20.85
2022-08-09T09:38:53.219Z,23.52
2022-08-09T09:41:32.899Z,24.88
2022-08-09T09:44:11.928Z,27.94
2022-08-09T09:46:50.750Z,30.67
2022-08-09T09:49:31.652Z,32.65
2022-08-09T09:52:33.401Z,34.78
2022-08-09T09:55:02.857Z,35.87
2022-08-09T09:58:03.426Z,36.57
2022-08-09T10:00:32.349Z,37.65
2022-08-09T10:03:11.624Z,37.57
2022-08-09T10:06:04.175Z,37.62
2022-08-09T10:08:31.498Z,37.74
2022-08-09T10:10:58.901Z,38.03
2022-08-09T10:13:45.254Z,38.44
2022-08-09T10:16:57.313Z,38.59
2022-08-09T10:19:06.283Z,39.22
2022-08-09T10:21:46.070Z,39.88
2022-08-09T10:24:25.745Z,40.21
2022-08-09T10:27:17.087Z,40.11
2022-08-09T10:30:43.979Z,39.80
2022-08-09T10:32:42.490Z,40.05
2022-08-09T10:35:10.477Z,40.52
2022-08-09T10:37:40.612Z,40.19
2022-08-09T10:40:11.910Z,40.27
2022-08-09T10:42:59.800Z,41.02
2022-08-09T10:45:31.751Z,41.45
2022-08-09T10:48:36.848Z,42.42
2022-08-09T10:51:14.988Z,42.92
2022-08-09T10:54:02.078Z,43.02
2022-08-09T10:56:34.484Z,43.02
2022-08-09T10:59:23.141Z,42.76
2022-08-09T11:03:13.823Z,41.97
2022-08-09T11:04:38.188Z,41.91
2022-08-09T11:07:26.584Z,41.41
2022-08-09T11:09:53.663Z,41.79
2022-08-09T11:12:29.913Z,42.39
2022-08-09T11:15:01.790Z,42.67
2022-08-09T11:17:31.216Z,43.28
2022-08-09T11:20:22.520Z,43.29
2022-08-09T11:22:56.535Z,43.15
2022-08-09T11:25:44.853Z,43.16
2022-08-09T11:28:35.143Z,42.90
2022-08-09T11:31:43.385Z,41.48
2022-08-09T11:34:35.158Z,40.70
2022-08-09T11:37:07.144Z,41.11
2022-08-09T11:40:05.859Z,41.50
2022-08-09T11:42:53.879Z,41.13
2022-08-09T11:45:22.080Z,40.72
2022-08-09T11:47:52.813Z,40.99
2022-08-09T11:50:55.402Z,41.54
2022-08-09T11:53:57.829Z,41.79
2022-08-09T11:56:02.409Z,42.03
2022-08-09T11:58:33.200Z,40.97
2022-08-09T12:01:15.540Z,41.38
2022-08-09T12:04:06.433Z,41.50
2022-08-09T12:06:36.116Z,41.28
2022-08-09T12:09:17.652Z,41.74
2022-08-09T12:12:12.861Z,42.16
2022-08-09T12:15:03.678Z,42.88
2022-08-09T12:17:41.598Z,43.36
2022-08-09T12:20:24.598Z,42.81
2022-08-09T12:22:59.566Z,42.25
2022-08-09T12:25:31.922Z,42.17
2022-08-09T12:29:00.150Z,42.48
2022-08-09T12:31:11.081Z,42.17
2022-08-09T12:33:58.351Z,41.38
2022-08-09T12:36:31.254Z,41.50
2022-08-09T12:39:00.075Z,41.44
2022-08-09T12:41:33.698Z,41.70
2022-08-09T12:44:09.706Z,42.35
2022-08-09T12:46:50.233Z,42.22
2022-08-09T12:49:18.198Z,41.88
2022-08-09T12:52:07.201Z,41.08
2022-08-09T12:56:10.831Z,41.04
2022-08-09T12:57:43.114Z,41.10
2022-08-09T13:00:25.932Z,41.24
2022-08-09T13:02:58.235Z,41.42
2022-08-09T13:05:50.870Z,41.95
2022-08-09T13:08:39.756Z,41.83
2022-08-09T13:11:13.208Z,41.10
2022-08-09T13:14:42.609Z,40.66
2022-08-09T13:16:46.149Z,40.64
2022-08-09T13:20:08.589Z,40.81
2022-08-09T13:22:35.261Z,40.88
2022-08-09T13:25:07.512Z,41.25
2022-08-09T13:27:39.847Z,42.04
2022-08-09T13:30:50.543Z,42.29
2022-08-09T13:33:07.048Z,42.98
2022-08-09T13:36:24.501Z,43.70
2022-08-09T13:38:55.996Z,44.05
2022-08-09T13:41:50.705Z,44.37
2022-08-09T13:44:00.011Z,44.63
2022-08-09T13:47:17.959Z,44.66
2022-08-09T13:49:19.202Z,44.87
2022-08-09T13:51:58.853Z,44.91
2022-08-09T13:54:30.378Z,45.04
2022-08-09T13:56:57.521Z,44.78
2022-08-09T13:59:25.916Z,44.41
2022-08-09T14:02:08.411Z,44.73
2022-08-09T14:04:37.125Z,44.53
2022-08-09T14:07:05.147Z,44.52
2022-08-09T14:09:34.806Z,44.64
2022-08-09T14:12:07.049Z,44.55
2022-08-09T14:14:43.987Z,44.85
2022-08-09T14:17:13.107Z,45.04
2022-08-09T14:19:44.213Z,45.11
2022-08-09T14:22:11.718Z,45.13
2022-08-09T14:24:39.604Z,45.20
2022-08-09T14:27:20.446Z,45.41
2022-08-09T14:30:34.932Z,45.47
2022-08-09T14:32:34.936Z,46.01
2022-08-09T14:35:06.486Z,45.76
2022-08-09T14:37:41.229Z,45.48
2022-08-09T14:41:00.307Z,45.08
2022-08-09T14:43:07.286Z,44.83
2022-08-09T14:46:59.034Z,44.64
2022-08-09T14:48:20.884Z,44.93
2022-08-09T14:50:53.746Z,45.09
2022-08-09T14:53:22.149Z,45.08
2022-08-09T14:55:53.334Z,45.13
2022-08-09T14:58:21.691Z,45.33
2022-08-09T15:00:51.230Z,45.42
2022-08-09T15:03:20.552Z,45.91
2022-08-09T15:05:52.270Z,45.82
2022-08-09T15:08:24.009Z,46.01
2022-08-09T15:11:00.329Z,46.34
2022-08-09T15:13:47.801Z,46.30
2022-08-09T15:16:15.960Z,46.61
2022-08-09T15:18:43.060Z,46.40
2022-08-09T15:22:01.032Z,46.30
2022-08-09T15:24:05.679Z,45.95
2022-08-09T15:26:46.302Z,46.14
2022-08-09T15:30:58.706Z,46.24
2022-08-09T15:32:01.391Z,46.48
2022-08-09T15:34:34.469Z,46.65
2022-08-09T15:37:03.915Z,46.65
2022-08-09T15:39:43.731Z,46.71
2022-08-09T15:42:19.650Z,47.29
2022-08-09T15:44:48.760Z,47.89
2022-08-09T15:47:21.673Z,48.24
2022-08-09T15:50:03.592Z,48.44
2022-08-09T15:52:36.940Z,48.52
2022-08-09T15:55:06.393Z,48.63
2022-08-09T15:57:34.225Z,48.71
2022-08-09T16:00:14.048Z,49.02
2022-08-09T16:02:53.378Z,49.08
2022-08-09T16:05:23.349Z,49.02
2022-08-09T16:07:51.196Z,49.09
2022-08-09T16:10:54.875Z,49.20
2022-08-09T16:13:20.984Z,49.39
2022-08-09T16:16:11.730Z,49.59
2022-08-09T16:18:45.353Z,49.76
2022-08-09T16:21:16.811Z,49.63
2022-08-09T16:23:54.575Z,49.41
2022-08-09T16:26:35.385Z,49.28
2022-08-09T16:29:11.650Z,49.53
2022-08-09T16:32:19.480Z,49.71
2022-08-09T16:34:55.005Z,50.00
2022-08-09T16:37:53.178Z,49.95
2022-08-09T16:40:20.488Z,50.13
2022-08-09T16:42:53.149Z,50.11
2022-08-09T16:45:20.192Z,50.38
2022-08-09T16:48:38.092Z,50.43
2022-08-09T16:50:39.060Z,50.80
2022-08-09T16:53:08.828Z,50.72
2022-08-09T16:55:57.679Z,50.80
2022-08-09T16:58:23.697Z,51.15
2022-08-09T17:00:50.733Z,51.22
2022-08-09T17:03:22.233Z,51.22
2022-08-09T17:09:03.159Z,51.66
2022-08-09T17:11:33.009Z,51.92
2022-08-09T17:14:25.701Z,52.23
2022-08-09T17:16:54.043Z,52.09
2022-08-09T17:19:21.168Z,52.50
2022-08-09T17:21:48.105Z,52.84
2022-08-09T17:24:30.302Z,53.05
2022-08-09T17:26:58.480Z,53.31
2022-08-09T17:29:31.765Z,53.58
2022-08-09T17:32:05.090Z,53.47
2022-08-09T17:35:07.859Z,53.83
2022-08-09T17:37:19.459Z,54.23
2022-08-09T17:39:52.855Z,54.12
2022-08-09T17:42:55.363Z,54.39
2022-08-09T17:45:26.883Z,54.64
2022-08-09T17:48:02.816Z,54.70
2022-08-09T17:50:36.669Z,55.14
2022-08-09T17:53:19.233Z,55.35
2022-08-09T17:55:51.949Z,55.37
2022-08-09T17:58:26.914Z,55.38
2022-08-09T18:00:56.689Z,55.13
2022-08-09T18:03:26.302Z,55.03
2022-08-09T18:05:57.104Z,55.13
2022-08-09T18:08:27.370Z,55.21
2022-08-09T18:11:01.932Z,55.40
2022-08-09T18:13:43.683Z,55.32
2022-08-09T18:16:29.060Z,55.42
2022-08-09T18:18:59.349Z,55.63
2022-08-09T18:21:31.903Z,55.60
2022-08-09T18:24:14.189Z,56.10
2022-08-09T18:26:47.983Z,56.08
2022-08-09T18:30:38.998Z,56.10
2022-08-09T18:32:07.357Z,56.19
2022-08-09T18:34:39.215Z,56.37
2022-08-09T18:37:10.432Z,56.51
2022-08-09T18:39:54.397Z,56.70
2022-08-09T18:42:31.251Z,56.53
2022-08-09T18:45:01.008Z,56.98
2022-08-09T18:47:36.991Z,56.77
2022-08-09T18:50:06.186Z,56.88
2022-08-09T18:52:36.304Z,57.13
2022-08-09T18:55:13.531Z,57.39
2022-08-09T18:57:44.580Z,57.68
2022-08-09T19:00:19.133Z,57.68
2022-08-09T19:02:50.844Z,57.82
2022-08-09T19:05:28.696Z,57.81
2022-08-09T19:08:10.690Z,57.90
2022-08-09T19:10:41.089Z,58.21
2022-08-09T19:13:23.229Z,58.31
2022-08-09T19:16:01.467Z,58.38
2022-08-09T19:18:37.385Z,58.79
2022-08-09T19:21:09.295Z,58.79
2022-08-09T19:24:37.274Z,58.92
2022-08-09T19:26:51.445Z,59.21
2022-08-09T19:29:20.652Z,59.43
2022-08-09T19:31:49.497Z,59.70
2022-08-09T19:34:22.678Z,59.42
2022-08-09T19:36:52.972Z,59.65
2022-08-09T19:39:43.111Z,59.93
2022-08-09T19:42:08.180Z,60.13
2022-08-09T19:44:35.532Z,60.01
2022-08-09T19:47:03.153Z,60.15
2022-08-09T19:50:07.498Z,60.52
2022-08-09T19:52:18.369Z,60.78
2022-08-09T19:54:45.494Z,60.94
2022-08-09T19:57:12.501Z,60.91
2022-08-09T20:00:01.886Z,60.81
2022-08-09T20:04:09.785Z,61.03
2022-08-09T20:05:16.649Z,61.12
2022-08-09T20:07:59.545Z,61.09
2022-08-09T20:10:36.856Z,61.19
2022-08-09T20:13:06.296Z,61.08
2022-08-09T20:16:35.773Z,60.98
2022-08-09T20:18:22.403Z,61.21
2022-08-09T20:20:55.011Z,61.11
2022-08-09T20:23:23.710Z,61.31
2022-08-09T20:25:52.346Z,61.37
2022-08-09T20:28:27.557Z,61.48
2022-08-09T20:30:58.948Z,61.41
2022-08-09T20:33:26.095Z,61.55
2022-08-09T20:35:55.740Z,61.71
2022-08-09T20:38:33.970Z,61.84
2022-08-09T20:41:09.773Z,61.79
2022-08-09T20:43:38.927Z,61.90
2022-08-09T20:46:34.076Z,61.83
2022-08-09T20:48:59.127Z,61.74
2022-08-09T20:51:26.761Z,61.77
2022-08-09T20:53:57.410Z,62.07
2022-08-09T20:56:26.708Z,61.82
2022-08-09T20:59:00.355Z,62.13
2022-08-09T21:01:34.725Z,62.15
2022-08-09T21:05:57.042Z,62.52
2022-08-09T21:07:11.312Z,62.62
2022-08-09T21:09:45.233Z,62.89
2022-08-09T21:14:48.215Z,62.94
2022-08-09T21:18:21.319Z,62.85
2022-08-09T21:20:25.258Z,63.27
2022-08-09T21:22:52.475Z,63.48
2022-08-09T21:25:43.751Z,63.45
2022-08-09T21:28:12.048Z,63.74
2022-08-09T21:30:42.472Z,63.51
2022-08-09T21:33:09.750Z,63.52
2022-08-09T21:35:40.776Z,63.62
2022-08-09T21:38:21.050Z,63.91
2022-08-09T21:40:59.647Z,63.86
2022-08-09T21:43:56.415Z,63.85
2022-08-09T21:46:13.661Z,63.93
2022-08-09T21:48:42.410Z,63.89
2022-08-09T21:51:14.147Z,64.07
2022-08-09T21:53:44.915Z,64.10
2022-08-09T21:56:28.311Z,64.33
2022-08-09T21:58:59.309Z,64.27
2022-08-09T22:01:58.531Z,64.12
2022-08-09T22:04:13.052Z,64.01
2022-08-09T22:06:43.215Z,64.19
2022-08-09T22:09:26.035Z,64.50
2022-08-09T22:12:17.921Z,64.41
2022-08-09T22:14:39.689Z,64.49
2022-08-09T22:17:08.247Z,64.49
2022-08-09T22:19:59.503Z,64.58
2022-08-09T22:22:24.288Z,64.46
2022-08-09T22:25:18.171Z,64.38
2022-08-09T22:27:41.138Z,64.36
2022-08-09T22:30:10.124Z,64.30
2022-08-09T22:32:40.718Z,64.33
2022-08-09T22:36:02.718Z,64.45
2022-08-09T22:38:07.012Z,64.23
2022-08-09T22:40:35.621Z,64.16
2022-08-09T22:43:16.207Z,64.20
2022-08-09T22:48:14.402Z,64.22
2022-08-09T22:48:36.932Z,64.31
2022-08-09T22:51:10.345Z,64.31
2022-08-09T22:53:44.351Z,64.43
2022-08-09T22:56:31.390Z,64.50
2022-08-09T22:59:06.074Z,64.58
2022-08-09T23:01:49.931Z,64.51
2022-08-09T23:04:19.229Z,64.48
2022-08-09T23:07:11.095Z,64.52
2022-08-09T23:09:39.048Z,64.66
2022-08-09T23:12:06.715Z,64.79
2022-08-09T23:14:42.125Z,64.75
2022-08-09T23:17:09.993Z,64.55
2022-08-09T23:20:06.791Z,64.55
2022-08-09T23:22:24.178Z,64.75
2022-08-09T23:24:51.316Z,64.75
2022-08-09T23:27:18.163Z,64.67
2022-08-09T23:29:45.901Z,64.81
2022-08-09T23:32:12.869Z,64.75
2022-08-09T23:34:40.006Z,64.56
2022-08-09T23:37:07.268Z,64.68
2022-08-09T23:39:34.918Z,64.57
2022-08-09T23:42:03.177Z,64.61
2022-08-09T23:44:30.402Z,64.81
2022-08-09T23:46:58.381Z,64.81
2022-08-09T23:49:26.335Z,64.83
2022-08-09T23:51:55.649Z,64.90
2022-08-09T23:54:25.202Z,64.68
2022-08-09T23:56:56.071Z,64.75
2022-08-09T23:59:24.457Z,64.65
